Jachal, Argentina
Current Conditions -  °F | °C
As of 8:00 PM on Monday 20 Oct 2014 (Local Time) from SCSE Reporting Station
Few Clouds Few Clouds  
Wind Chill: 57°   Ceiling: Unl
Heat Index: 57°   Visibility: 6mi
Dew Point: 52°   Wind: 6mph
Humidity: 82%   Direction: 290°WNW
Pressure: 29.91"   Gusts: NA
Location:  30.25°S, 68.75°W
Report Text: SCSE 202300Z 29005KT 9999 FEW015 14/11 Q1013
Loading
Personal Weather Stations






























Interactive Weather Map New forecast layout! Learn more

10-Day Weather Forecast

Advertisements
Track Severe Weather on mobile